sensor_id;sensor_type;location;lat;lon;timestamp;P1;durP1;ratioP1;P2;durP2;ratioP2
8654;SDS011;13500;52.514;13.462;2023-05-07T00:01:01;12.70;;;10.40;;
8654;SDS011;13500;52.514;13.462;2023-05-07T00:03:29;12.37;;;10.63;;
8654;SDS011;13500;52.514;13.462;2023-05-07T00:06:00;12.30;;;10.83;;
8654;SDS011;13500;52.514;13.462;2023-05-07T00:08:29;11.23;;;10.13;;
8654;SDS011;13500;52.514;13.462;2023-05-07T00:10:57;13.60;;;10.60;;
8654;SDS011;13500;52.514;13.462;2023-05-07T00:13:25;10.93;;;9.80;;
8654;SDS011;13500;52.514;13.462;2023-05-07T00:15:54;11.93;;;10.57;;
8654;SDS011;13500;52.514;13.462;2023-05-07T00:18:21;11.97;;;10.70;;
8654;SDS011;13500;52.514;13.462;2023-05-07T00:20:49;11.33;;;10.23;;
8654;SDS011;13500;52.514;13.462;2023-05-07T00:23:17;11.47;;;10.27;;
8654;SDS011;13500;52.514;13.462;2023-05-07T00:25:47;12.57;;;10.07;;
8654;SDS011;13500;52.514;13.462;2023-05-07T00:28:14;11.00;;;9.90;;
8654;SDS011;13500;52.514;13.462;2023-05-07T00:30:43;10.87;;;9.87;;
8654;SDS011;13500;52.514;13.462;2023-05-07T00:33:10;10.80;;;9.70;;
8654;SDS011;13500;52.514;13.462;2023-05-07T00:35:40;12.70;;;11.37;;
8654;SDS011;13500;52.514;13.462;2023-05-07T00:38:08;12.83;;;9.97;;
8654;SDS011;13500;52.514;13.462;2023-05-07T00:40:36;11.07;;;9.50;;
8654;SDS011;13500;52.514;13.462;2023-05-07T00:43:05;10.63;;;9.50;;
8654;SDS011;13500;52.514;13.462;2023-05-07T00:45:34;10.67;;;9.67;;
8654;SDS011;13500;52.514;13.462;2023-05-07T00:48:02;11.27;;;10.17;;
8654;SDS011;13500;52.514;13.462;2023-05-07T00:50:30;11.23;;;10.13;;
8654;SDS011;13500;52.514;13.462;2023-05-07T00:52:59;12.73;;;10.30;;
8654;SDS011;13500;52.514;13.462;2023-05-07T00:55:27;11.63;;;10.47;;
8654;SDS011;13500;52.514;13.462;2023-05-07T00:57:56;11.37;;;10.20;;
8654;SDS011;13500;52.514;13.462;2023-05-07T01:00:25;11.83;;;10.03;;
8654;SDS011;13500;52.514;13.462;2023-05-07T01:02:53;13.63;;;10.67;;
8654;SDS011;13500;52.514;13.462;2023-05-07T01:05:21;12.60;;;9.83;;
8654;SDS011;13500;52.514;13.462;2023-05-07T01:07:52;11.80;;;10.60;;
8654;SDS011;13500;52.514;13.462;2023-05-07T01:10:21;11.60;;;10.17;;
8654;SDS011;13500;52.514;13.462;2023-05-07T01:12:49;11.77;;;10.13;;
8654;SDS011;13500;52.514;13.462;2023-05-07T01:15:18;12.20;;;10.50;;
8654;SDS011;13500;52.514;13.462;2023-05-07T01:17:47;12.87;;;10.40;;
8654;SDS011;13500;52.514;13.462;2023-05-07T01:20:22;11.33;;;10.13;;
8654;SDS011;13500;52.514;13.462;2023-05-07T01:22:53;13.67;;;10.03;;
8654;SDS011;13500;52.514;13.462;2023-05-07T01:25:23;10.80;;;9.53;;
8654;SDS011;13500;52.514;13.462;2023-05-07T01:27:55;10.90;;;9.73;;
8654;SDS011;13500;52.514;13.462;2023-05-07T01:30:27;11.13;;;9.97;;
8654;SDS011;13500;52.514;13.462;2023-05-07T01:32:57;11.00;;;9.90;;
8654;SDS011;13500;52.514;13.462;2023-05-07T01:35:28;11.40;;;9.67;;
8654;SDS011;13500;52.514;13.462;2023-05-07T01:37:59;10.80;;;9.30;;
8654;SDS011;13500;52.514;13.462;2023-05-07T01:40:28;10.73;;;9.73;;
8654;SDS011;13500;52.514;13.462;2023-05-07T01:42:56;10.70;;;9.60;;
8654;SDS011;13500;52.514;13.462;2023-05-07T01:45:24;10.23;;;8.83;;
8654;SDS011;13500;52.514;13.462;2023-05-07T01:47:53;10.43;;;9.33;;
8654;SDS011;13500;52.514;13.462;2023-05-07T01:50:21;11.17;;;9.40;;
8654;SDS011;13500;52.514;13.462;2023-05-07T01:52:50;10.43;;;9.03;;
8654;SDS011;13500;52.514;13.462;2023-05-07T01:55:19;10.00;;;9.00;;
8654;SDS011;13500;52.514;13.462;2023-05-07T01:57:48;10.33;;;9.37;;
8654;SDS011;13500;52.514;13.462;2023-05-07T02:00:16;17.27;;;12.90;;
8654;SDS011;13500;52.514;13.462;2023-05-07T02:02:45;10.43;;;9.27;;
8654;SDS011;13500;52.514;13.462;2023-05-07T02:05:25;10.70;;;9.60;;
8654;SDS011;13500;52.514;13.462;2023-05-07T02:08:22;11.60;;;9.77;;
8654;SDS011;13500;52.514;13.462;2023-05-07T02:10:52;12.10;;;9.63;;
8654;SDS011;13500;52.514;13.462;2023-05-07T02:13:20;10.17;;;9.17;;
8654;SDS011;13500;52.514;13.462;2023-05-07T02:15:48;11.30;;;9.33;;
8654;SDS011;13500;52.514;13.462;2023-05-07T02:18:17;11.07;;;9.47;;
8654;SDS011;13500;52.514;13.462;2023-05-07T02:20:45;11.00;;;9.90;;
8654;SDS011;13500;52.514;13.462;2023-05-07T02:23:13;13.43;;;10.37;;
8654;SDS011;13500;52.514;13.462;2023-05-07T02:25:41;11.07;;;9.87;;
8654;SDS011;13500;52.514;13.462;2023-05-07T02:28:10;10.40;;;9.27;;
8654;SDS011;13500;52.514;13.462;2023-05-07T02:30:47;10.27;;;9.17;;
8654;SDS011;13500;52.514;13.462;2023-05-07T02:33:16;10.23;;;9.07;;
8654;SDS011;13500;52.514;13.462;2023-05-07T02:35:44;10.07;;;9.03;;
8654;SDS011;13500;52.514;13.462;2023-05-07T02:38:14;11.83;;;9.63;;
8654;SDS011;13500;52.514;13.462;2023-05-07T02:40:42;10.30;;;9.20;;
8654;SDS011;13500;52.514;13.462;2023-05-07T02:43:11;10.50;;;9.27;;
8654;SDS011;13500;52.514;13.462;2023-05-07T02:45:43;10.33;;;8.97;;
8654;SDS011;13500;52.514;13.462;2023-05-07T02:48:12;11.37;;;9.00;;
8654;SDS011;13500;52.514;13.462;2023-05-07T02:50:39;12.33;;;9.23;;
8654;SDS011;13500;52.514;13.462;2023-05-07T02:53:07;11.83;;;8.83;;
8654;SDS011;13500;52.514;13.462;2023-05-07T02:55:35;11.33;;;9.13;;
8654;SDS011;13500;52.514;13.462;2023-05-07T02:58:03;11.00;;;9.63;;
8654;SDS011;13500;52.514;13.462;2023-05-07T03:00:35;10.37;;;9.07;;
8654;SDS011;13500;52.514;13.462;2023-05-07T03:03:19;10.23;;;8.90;;
8654;SDS011;13500;52.514;13.462;2023-05-07T03:05:47;9.87;;;8.77;;
8654;SDS011;13500;52.514;13.462;2023-05-07T03:08:15;9.77;;;8.77;;
8654;SDS011;13500;52.514;13.462;2023-05-07T03:10:43;9.67;;;8.30;;
8654;SDS011;13500;52.514;13.462;2023-05-07T03:13:11;10.90;;;9.20;;
8654;SDS011;13500;52.514;13.462;2023-05-07T03:15:40;10.17;;;8.73;;
8654;SDS011;13500;52.514;13.462;2023-05-07T03:18:08;10.23;;;9.17;;
8654;SDS011;13500;52.514;13.462;2023-05-07T03:20:37;10.13;;;9.13;;
8654;SDS011;13500;52.514;13.462;2023-05-07T03:23:05;11.03;;;8.97;;
8654;SDS011;13500;52.514;13.462;2023-05-07T03:25:33;11.33;;;9.37;;
8654;SDS011;13500;52.514;13.462;2023-05-07T03:28:01;9.70;;;8.70;;
8654;SDS011;13500;52.514;13.462;2023-05-07T03:30:37;10.37;;;9.17;;
8654;SDS011;13500;52.514;13.462;2023-05-07T03:33:06;11.70;;;8.70;;
8654;SDS011;13500;52.514;13.462;2023-05-07T03:35:35;9.90;;;9.00;;
8654;SDS011;13500;52.514;13.462;2023-05-07T03:38:03;12.00;;;9.53;;
8654;SDS011;13500;52.514;13.462;2023-05-07T03:40:34;10.33;;;9.23;;
8654;SDS011;13500;52.514;13.462;2023-05-07T03:43:03;10.43;;;9.43;;
8654;SDS011;13500;52.514;13.462;2023-05-07T03:45:34;11.47;;;9.47;;
8654;SDS011;13500;52.514;13.462;2023-05-07T03:48:20;12.03;;;9.70;;
8654;SDS011;13500;52.514;13.462;2023-05-07T03:50:50;9.40;;;8.40;;
8654;SDS011;13500;52.514;13.462;2023-05-07T03:53:19;11.37;;;8.70;;
8654;SDS011;13500;52.514;13.462;2023-05-07T03:55:47;9.97;;;8.50;;
8654;SDS011;13500;52.514;13.462;2023-05-07T03:58:16;10.20;;;9.00;;
8654;SDS011;13500;52.514;13.462;2023-05-07T04:00:44;9.47;;;8.43;;
8654;SDS011;13500;52.514;13.462;2023-05-07T04:03:20;9.57;;;8.67;;
8654;SDS011;13500;52.514;13.462;2023-05-07T04:05:49;10.00;;;9.03;;
8654;SDS011;13500;52.514;13.462;2023-05-07T04:08:17;10.00;;;8.20;;
8654;SDS011;13500;52.514;13.462;2023-05-07T04:10:48;9.17;;;7.43;;
8654;SDS011;13500;52.514;13.462;2023-05-07T04:13:16;8.70;;;7.90;;
8654;SDS011;13500;52.514;13.462;2023-05-07T04:15:44;10.17;;;8.27;;
8654;SDS011;13500;52.514;13.462;2023-05-07T04:18:14;9.07;;;8.17;;
8654;SDS011;13500;52.514;13.462;2023-05-07T04:20:46;9.87;;;7.50;;
8654;SDS011;13500;52.514;13.462;2023-05-07T04:23:15;8.90;;;8.00;;
8654;SDS011;13500;52.514;13.462;2023-05-07T04:25:45;9.27;;;8.37;;
8654;SDS011;13500;52.514;13.462;2023-05-07T04:28:39;8.63;;;7.83;;
8654;SDS011;13500;52.514;13.462;2023-05-07T04:31:08;9.33;;;8.00;;
8654;SDS011;13500;52.514;13.462;2023-05-07T04:33:37;11.23;;;8.60;;
8654;SDS011;13500;52.514;13.462;2023-05-07T04:36:09;10.27;;;7.37;;
8654;SDS011;13500;52.514;13.462;2023-05-07T04:38:44;8.27;;;6.90;;
8654;SDS011;13500;52.514;13.462;2023-05-07T04:41:13;8.30;;;7.13;;
8654;SDS011;13500;52.514;13.462;2023-05-07T04:43:41;8.50;;;7.13;;
8654;SDS011;13500;52.514;13.462;2023-05-07T04:46:11;7.77;;;6.97;;
8654;SDS011;13500;52.514;13.462;2023-05-07T04:48:40;7.80;;;7.00;;
8654;SDS011;13500;52.514;13.462;2023-05-07T04:51:10;6.77;;;6.10;;
8654;SDS011;13500;52.514;13.462;2023-05-07T04:53:37;7.10;;;6.10;;
8654;SDS011;13500;52.514;13.462;2023-05-07T04:56:06;6.87;;;6.23;;
8654;SDS011;13500;52.514;13.462;2023-05-07T04:58:39;6.50;;;5.90;;
8654;SDS011;13500;52.514;13.462;2023-05-07T05:01:07;6.27;;;5.67;;
8654;SDS011;13500;52.514;13.462;2023-05-07T05:03:36;13.03;;;6.53;;
8654;SDS011;13500;52.514;13.462;2023-05-07T05:06:06;6.93;;;6.27;;
8654;SDS011;13500;52.514;13.462;2023-05-07T05:08:38;9.70;;;6.30;;
8654;SDS011;13500;52.514;13.462;2023-05-07T05:11:06;7.63;;;6.20;;
8654;SDS011;13500;52.514;13.462;2023-05-07T05:13:35;6.97;;;6.27;;
8654;SDS011;13500;52.514;13.462;2023-05-07T05:16:13;7.47;;;5.93;;
8654;SDS011;13500;52.514;13.462;2023-05-07T05:18:41;7.13;;;6.47;;
8654;SDS011;13500;52.514;13.462;2023-05-07T05:21:12;7.73;;;6.50;;
8654;SDS011;13500;52.514;13.462;2023-05-07T05:23:43;7.30;;;6.60;;
8654;SDS011;13500;52.514;13.462;2023-05-07T05:26:12;7.53;;;6.57;;
8654;SDS011;13500;52.514;13.462;2023-05-07T05:28:40;7.00;;;6.40;;
8654;SDS011;13500;52.514;13.462;2023-05-07T05:31:08;7.87;;;7.00;;
8654;SDS011;13500;52.514;13.462;2023-05-07T05:33:36;7.20;;;6.20;;
8654;SDS011;13500;52.514;13.462;2023-05-07T05:36:05;8.27;;;6.87;;
8654;SDS011;13500;52.514;13.462;2023-05-07T05:38:34;7.97;;;6.70;;
8654;SDS011;13500;52.514;13.462;2023-05-07T05:41:04;7.43;;;6.10;;
8654;SDS011;13500;52.514;13.462;2023-05-07T05:43:32;7.90;;;7.10;;
8654;SDS011;13500;52.514;13.462;2023-05-07T05:46:00;8.10;;;6.90;;
8654;SDS011;13500;52.514;13.462;2023-05-07T05:48:28;7.57;;;6.60;;
8654;SDS011;13500;52.514;13.462;2023-05-07T05:50:58;8.13;;;7.33;;
8654;SDS011;13500;52.514;13.462;2023-05-07T05:53:26;7.97;;;7.20;;
8654;SDS011;13500;52.514;13.462;2023-05-07T05:55:54;7.77;;;6.87;;
8654;SDS011;13500;52.514;13.462;2023-05-07T05:58:24;9.63;;;8.30;;
8654;SDS011;13500;52.514;13.462;2023-05-07T06:00:57;8.53;;;7.63;;
8654;SDS011;13500;52.514;13.462;2023-05-07T06:03:27;7.87;;;7.07;;
8654;SDS011;13500;52.514;13.462;2023-05-07T06:05:57;7.50;;;6.70;;
8654;SDS011;13500;52.514;13.462;2023-05-07T06:08:28;7.97;;;7.17;;
8654;SDS011;13500;52.514;13.462;2023-05-07T06:10:57;8.50;;;7.20;;
8654;SDS011;13500;52.514;13.462;2023-05-07T06:13:28;9.50;;;6.70;;
8654;SDS011;13500;52.514;13.462;2023-05-07T06:15:56;9.33;;;6.90;;
8654;SDS011;13500;52.514;13.462;2023-05-07T06:18:24;7.30;;;6.47;;
8654;SDS011;13500;52.514;13.462;2023-05-07T06:20:53;7.93;;;6.40;;
8654;SDS011;13500;52.514;13.462;2023-05-07T06:23:27;7.73;;;6.80;;
8654;SDS011;13500;52.514;13.462;2023-05-07T06:25:54;6.57;;;5.97;;
8654;SDS011;13500;52.514;13.462;2023-05-07T06:28:29;6.77;;;6.13;;
8654;SDS011;13500;52.514;13.462;2023-05-07T06:31:13;7.50;;;6.13;;
8654;SDS011;13500;52.514;13.462;2023-05-07T06:33:48;6.50;;;5.90;;
8654;SDS011;13500;52.514;13.462;2023-05-07T06:36:17;7.00;;;6.10;;
8654;SDS011;13500;52.514;13.462;2023-05-07T06:38:45;7.50;;;6.80;;
8654;SDS011;13500;52.514;13.462;2023-05-07T06:41:14;6.90;;;6.20;;
8654;SDS011;13500;52.514;13.462;2023-05-07T06:43:44;7.07;;;6.30;;
8654;SDS011;13500;52.514;13.462;2023-05-07T06:46:38;7.00;;;6.30;;
8654;SDS011;13500;52.514;13.462;2023-05-07T06:49:06;6.13;;;5.50;;
8654;SDS011;13500;52.514;13.462;2023-05-07T06:51:34;6.00;;;5.33;;
8654;SDS011;13500;52.514;13.462;2023-05-07T06:54:03;9.10;;;7.07;;
8654;SDS011;13500;52.514;13.462;2023-05-07T06:56:32;8.43;;;5.40;;
8654;SDS011;13500;52.514;13.462;2023-05-07T06:59:03;5.80;;;5.20;;
8654;SDS011;13500;52.514;13.462;2023-05-07T07:01:35;5.90;;;5.13;;
8654;SDS011;13500;52.514;13.462;2023-05-07T07:04:04;5.23;;;4.50;;
8654;SDS011;13500;52.514;13.462;2023-05-07T07:06:32;5.70;;;4.97;;
8654;SDS011;13500;52.514;13.462;2023-05-07T07:09:03;5.37;;;4.83;;
8654;SDS011;13500;52.514;13.462;2023-05-07T07:11:31;5.50;;;4.87;;
8654;SDS011;13500;52.514;13.462;2023-05-07T07:13:59;5.30;;;4.80;;
8654;SDS011;13500;52.514;13.462;2023-05-07T07:16:30;5.43;;;4.77;;
8654;SDS011;13500;52.514;13.462;2023-05-07T07:18:59;5.03;;;4.63;;
8654;SDS011;13500;52.514;13.462;2023-05-07T07:21:27;5.23;;;4.43;;
8654;SDS011;13500;52.514;13.462;2023-05-07T07:23:55;4.93;;;4.40;;
8654;SDS011;13500;52.514;13.462;2023-05-07T07:26:23;6.67;;;4.30;;
8654;SDS011;13500;52.514;13.462;2023-05-07T07:28:51;4.70;;;4.20;;
8654;SDS011;13500;52.514;13.462;2023-05-07T07:31:21;4.67;;;3.70;;
8654;SDS011;13500;52.514;13.462;2023-05-07T07:33:51;4.17;;;3.77;;
8654;SDS011;13500;52.514;13.462;2023-05-07T07:36:19;4.30;;;3.90;;
8654;SDS011;13500;52.514;13.462;2023-05-07T07:38:53;4.00;;;3.63;;
8654;SDS011;13500;52.514;13.462;2023-05-07T07:41:21;4.70;;;4.20;;
8654;SDS011;13500;52.514;13.462;2023-05-07T07:43:49;4.60;;;4.13;;
8654;SDS011;13500;52.514;13.462;2023-05-07T07:46:19;4.20;;;3.80;;
8654;SDS011;13500;52.514;13.462;2023-05-07T07:48:47;6.40;;;3.83;;
8654;SDS011;13500;52.514;13.462;2023-05-07T07:51:17;3.73;;;3.20;;
8654;SDS011;13500;52.514;13.462;2023-05-07T07:53:45;3.90;;;3.23;;
8654;SDS011;13500;52.514;13.462;2023-05-07T07:56:13;4.03;;;3.63;;
8654;SDS011;13500;52.514;13.462;2023-05-07T07:58:42;3.40;;;3.10;;
8654;SDS011;13500;52.514;13.462;2023-05-07T08:01:09;3.67;;;3.20;;
8654;SDS011;13500;52.514;13.462;2023-05-07T08:03:39;3.97;;;3.30;;
8654;SDS011;13500;52.514;13.462;2023-05-07T08:06:08;4.47;;;3.13;;
8654;SDS011;13500;52.514;13.462;2023-05-07T08:08:37;3.53;;;3.23;;
8654;SDS011;13500;52.514;13.462;2023-05-07T08:11:05;4.63;;;3.13;;
8654;SDS011;13500;52.514;13.462;2023-05-07T08:13:35;5.33;;;2.70;;
8654;SDS011;13500;52.514;13.462;2023-05-07T08:16:03;4.00;;;2.90;;
8654;SDS011;13500;52.514;13.462;2023-05-07T08:18:33;3.53;;;3.20;;
8654;SDS011;13500;52.514;13.462;2023-05-07T08:21:02;5.93;;;3.50;;
8654;SDS011;13500;52.514;13.462;2023-05-07T08:23:31;3.53;;;3.23;;
8654;SDS011;13500;52.514;13.462;2023-05-07T08:26:02;2.80;;;2.60;;
8654;SDS011;13500;52.514;13.462;2023-05-07T08:28:30;4.60;;;2.90;;
8654;SDS011;13500;52.514;13.462;2023-05-07T08:30:57;3.03;;;2.83;;
8654;SDS011;13500;52.514;13.462;2023-05-07T08:33:31;3.53;;;2.60;;
8654;SDS011;13500;52.514;13.462;2023-05-07T08:35:59;2.83;;;2.63;;
8654;SDS011;13500;52.514;13.462;2023-05-07T08:38:27;2.97;;;2.67;;
8654;SDS011;13500;52.514;13.462;2023-05-07T08:40:55;3.40;;;3.07;;
8654;SDS011;13500;52.514;13.462;2023-05-07T08:43:26;3.13;;;2.80;;
8654;SDS011;13500;52.514;13.462;2023-05-07T08:45:54;2.80;;;2.60;;
8654;SDS011;13500;52.514;13.462;2023-05-07T08:48:26;3.00;;;2.70;;
8654;SDS011;13500;52.514;13.462;2023-05-07T08:51:12;2.87;;;2.63;;
8654;SDS011;13500;52.514;13.462;2023-05-07T08:53:41;3.90;;;2.80;;
8654;SDS011;13500;52.514;13.462;2023-05-07T08:56:12;5.20;;;2.90;;
8654;SDS011;13500;52.514;13.462;2023-05-07T08:58:43;3.90;;;3.27;;
8654;SDS011;13500;52.514;13.462;2023-05-07T09:01:13;3.50;;;2.87;;
8654;SDS011;13500;52.514;13.462;2023-05-07T09:03:44;5.20;;;2.93;;
8654;SDS011;13500;52.514;13.462;2023-05-07T09:06:13;3.50;;;2.80;;
8654;SDS011;13500;52.514;13.462;2023-05-07T09:08:44;3.83;;;3.03;;
8654;SDS011;13500;52.514;13.462;2023-05-07T09:11:19;3.40;;;2.93;;
8654;SDS011;13500;52.514;13.462;2023-05-07T09:13:50;3.30;;;2.90;;
8654;SDS011;13500;52.514;13.462;2023-05-07T09:16:21;5.20;;;3.20;;
8654;SDS011;13500;52.514;13.462;2023-05-07T09:18:50;4.60;;;2.97;;
8654;SDS011;13500;52.514;13.462;2023-05-07T09:21:20;3.50;;;3.20;;
8654;SDS011;13500;52.514;13.462;2023-05-07T09:23:51;2.90;;;2.60;;
8654;SDS011;13500;52.514;13.462;2023-05-07T09:26:23;5.17;;;3.00;;
8654;SDS011;13500;52.514;13.462;2023-05-07T09:28:53;3.57;;;3.20;;
8654;SDS011;13500;52.514;13.462;2023-05-07T09:31:20;4.73;;;3.13;;
8654;SDS011;13500;52.514;13.462;2023-05-07T09:33:52;4.60;;;2.70;;
8654;SDS011;13500;52.514;13.462;2023-05-07T09:36:24;4.60;;;3.03;;
8654;SDS011;13500;52.514;13.462;2023-05-07T09:38:52;3.80;;;3.00;;
8654;SDS011;13500;52.514;13.462;2023-05-07T09:41:19;4.23;;;2.97;;
8654;SDS011;13500;52.514;13.462;2023-05-07T09:44:06;2.50;;;2.30;;
8654;SDS011;13500;52.514;13.462;2023-05-07T09:46:39;3.20;;;2.50;;
8654;SDS011;13500;52.514;13.462;2023-05-07T09:49:20;4.57;;;2.40;;
8654;SDS011;13500;52.514;13.462;2023-05-07T09:51:56;2.57;;;2.37;;
8654;SDS011;13500;52.514;13.462;2023-05-07T09:54:29;2.70;;;2.33;;
8654;SDS011;13500;52.514;13.462;2023-05-07T09:56:58;3.87;;;2.50;;
8654;SDS011;13500;52.514;13.462;2023-05-07T09:59:29;2.33;;;2.13;;
8654;SDS011;13500;52.514;13.462;2023-05-07T10:02:03;2.43;;;2.20;;
8654;SDS011;13500;52.514;13.462;2023-05-07T10:04:38;4.10;;;2.70;;
8654;SDS011;13500;52.514;13.462;2023-05-07T10:07:07;3.17;;;2.33;;
8654;SDS011;13500;52.514;13.462;2023-05-07T10:09:36;2.67;;;2.13;;
8654;SDS011;13500;52.514;13.462;2023-05-07T10:12:10;4.87;;;2.60;;
8654;SDS011;13500;52.514;13.462;2023-05-07T10:14:40;2.50;;;2.00;;
8654;SDS011;13500;52.514;13.462;2023-05-07T10:17:08;2.20;;;2.00;;
8654;SDS011;13500;52.514;13.462;2023-05-07T10:19:40;3.50;;;2.17;;
8654;SDS011;13500;52.514;13.462;2023-05-07T10:22:09;2.37;;;2.07;;
8654;SDS011;13500;52.514;13.462;2023-05-07T10:24:42;2.63;;;2.10;;
8654;SDS011;13500;52.514;13.462;2023-05-07T10:27:15;4.07;;;2.17;;
8654;SDS011;13500;52.514;13.462;2023-05-07T10:29:51;2.00;;;1.80;;
8654;SDS011;13500;52.514;13.462;2023-05-07T10:32:38;2.97;;;1.90;;
8654;SDS011;13500;52.514;13.462;2023-05-07T10:35:14;3.47;;;2.20;;
8654;SDS011;13500;52.514;13.462;2023-05-07T10:37:44;3.27;;;2.13;;
8654;SDS011;13500;52.514;13.462;2023-05-07T10:40:12;4.10;;;3.13;;
8654;SDS011;13500;52.514;13.462;2023-05-07T10:42:52;2.13;;;1.90;;
8654;SDS011;13500;52.514;13.462;2023-05-07T10:45:24;2.97;;;2.20;;
8654;SDS011;13500;52.514;13.462;2023-05-07T10:48:07;2.97;;;2.00;;
8654;SDS011;13500;52.514;13.462;2023-05-07T10:50:47;2.37;;;1.80;;
8654;SDS011;13500;52.514;13.462;2023-05-07T10:53:22;2.80;;;1.80;;
8654;SDS011;13500;52.514;13.462;2023-05-07T11:02:06;2.27;;;2.00;;
8654;SDS011;13500;52.514;13.462;2023-05-07T11:08:09;3.00;;;2.10;;
8654;SDS011;13500;52.514;13.462;2023-05-07T11:10:47;2.60;;;2.00;;
8654;SDS011;13500;52.514;13.462;2023-05-07T11:13:55;2.40;;;1.80;;
8654;SDS011;13500;52.514;13.462;2023-05-07T11:16:31;2.50;;;2.20;;
8654;SDS011;13500;52.514;13.462;2023-05-07T11:19:12;2.20;;;1.93;;
8654;SDS011;13500;52.514;13.462;2023-05-07T11:21:44;3.63;;;2.40;;
8654;SDS011;13500;52.514;13.462;2023-05-07T11:24:44;2.27;;;2.00;;
8654;SDS011;13500;52.514;13.462;2023-05-07T11:27:13;3.40;;;2.33;;
8654;SDS011;13500;52.514;13.462;2023-05-07T11:29:45;2.20;;;2.00;;
8654;SDS011;13500;52.514;13.462;2023-05-07T11:32:14;2.10;;;1.90;;
8654;SDS011;13500;52.514;13.462;2023-05-07T11:34:52;3.23;;;1.90;;
8654;SDS011;13500;52.514;13.462;2023-05-07T11:37:21;3.40;;;2.40;;
8654;SDS011;13500;52.514;13.462;2023-05-07T11:40:02;2.10;;;1.80;;
8654;SDS011;13500;52.514;13.462;2023-05-07T11:42:32;2.07;;;1.73;;
8654;SDS011;13500;52.514;13.462;2023-05-07T11:45:01;4.00;;;3.60;;
8654;SDS011;13500;52.514;13.462;2023-05-07T11:47:30;3.30;;;2.10;;
8654;SDS011;13500;52.514;13.462;2023-05-07T11:50:03;3.00;;;1.80;;
8654;SDS011;13500;52.514;13.462;2023-05-07T11:52:32;3.63;;;1.83;;
8654;SDS011;13500;52.514;13.462;2023-05-07T11:55:00;2.47;;;1.80;;
8654;SDS011;13500;52.514;13.462;2023-05-07T11:57:30;4.37;;;2.27;;
8654;SDS011;13500;52.514;13.462;2023-05-07T11:59:58;2.30;;;1.80;;
8654;SDS011;13500;52.514;13.462;2023-05-07T12:02:38;2.10;;;1.90;;
8654;SDS011;13500;52.514;13.462;2023-05-07T12:05:07;1.90;;;1.70;;
8654;SDS011;13500;52.514;13.462;2023-05-07T12:07:36;2.53;;;1.90;;
8654;SDS011;13500;52.514;13.462;2023-05-07T12:10:04;7.47;;;5.07;;
8654;SDS011;13500;52.514;13.462;2023-05-07T12:12:37;2.93;;;2.27;;
8654;SDS011;13500;52.514;13.462;2023-05-07T12:15:06;3.37;;;2.07;;
8654;SDS011;13500;52.514;13.462;2023-05-07T12:17:35;4.17;;;2.27;;
8654;SDS011;13500;52.514;13.462;2023-05-07T12:20:04;3.10;;;2.10;;
8654;SDS011;13500;52.514;13.462;2023-05-07T12:22:34;1.90;;;1.80;;
8654;SDS011;13500;52.514;13.462;2023-05-07T12:25:03;2.60;;;1.90;;
8654;SDS011;13500;52.514;13.462;2023-05-07T12:27:32;2.33;;;1.90;;
8654;SDS011;13500;52.514;13.462;2023-05-07T12:29:59;4.90;;;1.80;;
8654;SDS011;13500;52.514;13.462;2023-05-07T12:32:27;2.57;;;1.73;;
8654;SDS011;13500;52.514;13.462;2023-05-07T12:34:56;4.97;;;1.77;;
8654;SDS011;13500;52.514;13.462;2023-05-07T12:37:24;6.57;;;1.70;;
8654;SDS011;13500;52.514;13.462;2023-05-07T12:42:43;2.93;;;1.93;;
8654;SDS011;13500;52.514;13.462;2023-05-07T12:45:12;3.03;;;1.93;;
8654;SDS011;13500;52.514;13.462;2023-05-07T12:47:43;3.37;;;1.90;;
8654;SDS011;13500;52.514;13.462;2023-05-07T12:50:12;2.50;;;1.60;;
8654;SDS011;13500;52.514;13.462;2023-05-07T12:52:40;4.17;;;2.40;;
8654;SDS011;13500;52.514;13.462;2023-05-07T12:55:08;4.60;;;2.07;;
8654;SDS011;13500;52.514;13.462;2023-05-07T12:57:39;2.53;;;1.67;;
8654;SDS011;13500;52.514;13.462;2023-05-07T13:00:08;2.87;;;1.80;;
8654;SDS011;13500;52.514;13.462;2023-05-07T13:02:37;3.50;;;1.80;;
8654;SDS011;13500;52.514;13.462;2023-05-07T13:05:07;2.37;;;1.70;;
8654;SDS011;13500;52.514;13.462;2023-05-07T13:07:36;2.07;;;1.60;;
8654;SDS011;13500;52.514;13.462;2023-05-07T13:10:04;2.47;;;1.70;;
8654;SDS011;13500;52.514;13.462;2023-05-07T13:12:33;1.77;;;1.53;;
8654;SDS011;13500;52.514;13.462;2023-05-07T13:15:03;2.60;;;1.60;;
8654;SDS011;13500;52.514;13.462;2023-05-07T13:17:31;4.80;;;1.90;;
8654;SDS011;13500;52.514;13.462;2023-05-07T13:19:59;1.90;;;1.70;;
8654;SDS011;13500;52.514;13.462;2023-05-07T13:22:28;3.10;;;1.90;;
8654;SDS011;13500;52.514;13.462;2023-05-07T13:24:56;1.83;;;1.73;;
8654;SDS011;13500;52.514;13.462;2023-05-07T13:27:24;3.97;;;1.83;;
8654;SDS011;13500;52.514;13.462;2023-05-07T13:29:52;2.67;;;1.67;;
8654;SDS011;13500;52.514;13.462;2023-05-07T13:32:21;3.80;;;1.87;;
8654;SDS011;13500;52.514;13.462;2023-05-07T13:34:49;2.23;;;1.80;;
8654;SDS011;13500;52.514;13.462;2023-05-07T13:37:17;3.20;;;1.90;;
8654;SDS011;13500;52.514;13.462;2023-05-07T13:39:45;3.63;;;1.70;;
8654;SDS011;13500;52.514;13.462;2023-05-07T13:42:13;2.13;;;1.60;;
8654;SDS011;13500;52.514;13.462;2023-05-07T13:44:41;1.73;;;1.57;;
8654;SDS011;13500;52.514;13.462;2023-05-07T13:47:10;2.07;;;1.83;;
8654;SDS011;13500;52.514;13.462;2023-05-07T13:49:39;2.77;;;1.87;;
8654;SDS011;13500;52.514;13.462;2023-05-07T13:52:07;1.80;;;1.60;;
8654;SDS011;13500;52.514;13.462;2023-05-07T13:54:35;2.10;;;1.87;;
8654;SDS011;13500;52.514;13.462;2023-05-07T13:57:03;2.20;;;1.80;;
8654;SDS011;13500;52.514;13.462;2023-05-07T13:59:31;1.70;;;1.60;;
8654;SDS011;13500;52.514;13.462;2023-05-07T14:01:59;2.20;;;2.00;;
8654;SDS011;13500;52.514;13.462;2023-05-07T14:04:27;2.40;;;1.80;;
8654;SDS011;13500;52.514;13.462;2023-05-07T14:06:56;2.43;;;1.90;;
8654;SDS011;13500;52.514;13.462;2023-05-07T14:09:24;2.57;;;1.87;;
8654;SDS011;13500;52.514;13.462;2023-05-07T14:11:52;2.50;;;1.90;;
8654;SDS011;13500;52.514;13.462;2023-05-07T14:14:20;1.90;;;1.80;;
8654;SDS011;13500;52.514;13.462;2023-05-07T14:16:48;3.03;;;1.80;;
8654;SDS011;13500;52.514;13.462;2023-05-07T14:19:16;4.80;;;1.73;;
8654;SDS011;13500;52.514;13.462;2023-05-07T14:21:44;2.07;;;1.90;;
8654;SDS011;13500;52.514;13.462;2023-05-07T14:24:14;2.30;;;1.70;;
8654;SDS011;13500;52.514;13.462;2023-05-07T14:26:56;2.10;;;1.70;;
8654;SDS011;13500;52.514;13.462;2023-05-07T14:29:24;4.10;;;1.77;;
8654;SDS011;13500;52.514;13.462;2023-05-07T14:31:52;3.17;;;1.47;;
8654;SDS011;13500;52.514;13.462;2023-05-07T14:34:20;2.40;;;1.47;;
8654;SDS011;13500;52.514;13.462;2023-05-07T14:36:47;1.60;;;1.50;;
8654;SDS011;13500;52.514;13.462;2023-05-07T14:39:17;1.83;;;1.60;;
8654;SDS011;13500;52.514;13.462;2023-05-07T14:41:45;2.93;;;1.63;;
8654;SDS011;13500;52.514;13.462;2023-05-07T14:44:13;1.63;;;1.43;;
8654;SDS011;13500;52.514;13.462;2023-05-07T14:46:40;3.23;;;1.47;;
8654;SDS011;13500;52.514;13.462;2023-05-07T14:49:08;3.43;;;1.83;;
8654;SDS011;13500;52.514;13.462;2023-05-07T14:51:43;4.90;;;1.70;;
8654;SDS011;13500;52.514;13.462;2023-05-07T14:54:12;1.93;;;1.60;;
8654;SDS011;13500;52.514;13.462;2023-05-07T14:56:41;2.73;;;1.70;;
8654;SDS011;13500;52.514;13.462;2023-05-07T14:59:09;2.00;;;1.70;;
8654;SDS011;13500;52.514;13.462;2023-05-07T15:01:37;2.50;;;1.50;;
8654;SDS011;13500;52.514;13.462;2023-05-07T15:04:09;1.97;;;1.70;;
8654;SDS011;13500;52.514;13.462;2023-05-07T15:06:37;1.60;;;1.50;;
8654;SDS011;13500;52.514;13.462;2023-05-07T15:09:04;1.60;;;1.50;;
8654;SDS011;13500;52.514;13.462;2023-05-07T15:11:33;1.70;;;1.53;;
8654;SDS011;13500;52.514;13.462;2023-05-07T15:14:04;3.40;;;1.80;;